Cody, WY

11:10 AM MDT on April 25, 2017 (GMT -0600)
Yellowstone Regional

Weather History for KCOD - July, 2013

Change the Weather History Date:

Tuesday, July 16, 2013

  Actual Average Record
Temperature  
Mean Temperature 64 °F -  
Max Temperature 71 °F 85 °F 102 °F (1951)
Min Temperature 57 °F 56 °F 39 °F (1927)
Degree Days  
Heating Degree Days 1    
Growing Degree Days 14 (Base 50)    
Moisture  
Dew Point 48 °F    
Average Humidity 60    
Maximum Humidity 94    
Minimum Humidity 29    
Precipitation  
Precipitation 0.01 in - - ()
Sea Level Pressure  
Sea Level Pressure 30.22 in    
Wind  
Wind Speed 10 mph (North)    
Max Wind Speed 21 mph    
Max Gust Speed 28 mph    
Visibility 10 miles    
Events Thunderstorm    
Averages and records for this station are not official NWS values.
T = Trace of Precipitation, MM = Missing Value Source: NWS Daily Summary

Daily Weather History Graph

Daily Weather History Graph

Search for Another Location

Airport or City:

Trip Planner

Search our weather history database for the weather conditions in past years. The results will help you decide how hot, cold, wet, or windy it might be!

Date:

Astronomy

Jul. 16, 2013 Rise Set
Actual Time 5:46 AM MDT 8:57 PM MDT
Civil Twilight 5:11 AM MDT 9:32 PM MDT
Nautical Twilight 4:25 AM MDT 10:17 PM MDT
Astronomical Twilight 3:29 AM MDT 11:13 PM MDT
Moon 2:36 PM MDT (7/16) 12:25 AM MDT (7/16)
Length of Visible Light 16h 21m
Length of Day
15h 10m
First Quarter, 57% of the Moon is Illuminated
Jul 16
First Quarter
Jul 22
Full
Jul 29
Last Quarter
Aug 6
New
Aug 14
First Quarter

Hourly Weather History & Observations

Time (MDT) Temp. Dew Point Humidity Pressure Visibility Wind Dir Wind Speed Gust Speed Precip Events Conditions
12:15 AM 71.6 °F 37.4 °F 29% 30.05 in 10.0 mi West 4.6 mph - N/A   Clear
12:35 AM 66.2 °F 39.2 °F 37% 30.05 in 10.0 mi South 4.6 mph - N/A   Clear
12:55 AM 66.2 °F 37.4 °F 35% 30.06 in 10.0 mi SSE 6.9 mph - N/A   Clear
1:15 AM 68.0 °F 37.4 °F 33% 30.06 in 10.0 mi Calm Calm - N/A   Clear
1:35 AM 69.8 °F 39.2 °F 33% 30.06 in 10.0 mi Calm Calm - N/A   Clear
1:55 AM 68.0 °F 37.4 °F 33% 30.07 in 10.0 mi South 4.6 mph - N/A   Clear
2:15 AM 69.8 °F 39.2 °F 33% 30.07 in 10.0 mi Calm Calm - N/A   Clear
2:35 AM 69.8 °F 39.2 °F 33% 30.09 in 10.0 mi Calm Calm - N/A   Clear
2:55 AM 66.2 °F 44.6 °F 46% 30.12 in 10.0 mi North 17.3 mph 23.0 mph N/A   Clear
3:15 AM 66.2 °F 46.4 °F 49% 30.13 in 10.0 mi North 10.4 mph 18.4 mph N/A   Clear
3:35 AM 66.2 °F 46.4 °F 49% 30.14 in 10.0 mi NNW 10.4 mph - N/A   Clear
3:55 AM 64.4 °F 46.4 °F 52% 30.15 in 10.0 mi North 12.7 mph - N/A   Clear
4:15 AM 64.4 °F 48.2 °F 56% 30.15 in 10.0 mi NNW 13.8 mph 21.9 mph N/A   Clear
4:35 AM 62.6 °F 48.2 °F 59% 30.17 in 10.0 mi NNW 12.7 mph 21.9 mph N/A   Clear
4:55 AM 62.6 °F 48.2 °F 59% 30.17 in 10.0 mi NNW 16.1 mph 21.9 mph N/A   Clear
5:15 AM 60.8 °F 48.2 °F 63% 30.18 in 10.0 mi North 17.3 mph - N/A   Clear
5:35 AM 60.8 °F 48.2 °F 63% 30.20 in 10.0 mi NNW 15.0 mph 23.0 mph N/A   Clear
5:55 AM 59.0 °F 48.2 °F 67% 30.21 in 10.0 mi North 15.0 mph 20.7 mph N/A   Clear
6:15 AM 59.0 °F 48.2 °F 67% 30.22 in 10.0 mi North 15.0 mph 21.9 mph N/A   Clear
6:35 AM 59.0 °F 48.2 °F 67% 30.22 in 10.0 mi NNW 16.1 mph 24.2 mph N/A   Clear
6:55 AM 59.0 °F 50.0 °F 72% 30.23 in 10.0 mi North 16.1 mph 25.3 mph N/A   Clear
7:15 AM 59.0 °F 48.2 °F 67% 30.23 in 10.0 mi North 16.1 mph 21.9 mph N/A   Clear
7:35 AM 59.0 °F 50.0 °F 72% 30.24 in 10.0 mi North 17.3 mph 25.3 mph N/A   Clear
7:55 AM 60.8 °F 50.0 °F 68% 30.24 in 10.0 mi North 18.4 mph 24.2 mph N/A   Partly Cloudy
8:15 AM 60.8 °F 50.0 °F 68% 30.24 in 10.0 mi NNW 13.8 mph 24.2 mph N/A   Scattered Clouds
8:35 AM 60.8 °F 48.2 °F 63% 30.25 in 10.0 mi North 13.8 mph 24.2 mph N/A   Partly Cloudy
8:55 AM 60.8 °F 48.2 °F 63% 30.25 in 10.0 mi North 18.4 mph 25.3 mph N/A   Clear
9:15 AM 62.6 °F 48.2 °F 59% 30.25 in 10.0 mi North 19.6 mph 25.3 mph N/A   Clear
9:35 AM 62.6 °F 46.4 °F 55% 30.25 in 10.0 mi North 17.3 mph 23.0 mph N/A   Clear
9:55 AM 62.6 °F 46.4 °F 55% 30.25 in 10.0 mi NNE 18.4 mph 25.3 mph N/A   Clear
10:15 AM 64.4 °F 44.6 °F 49% 30.25 in 10.0 mi NNE 19.6 mph 24.2 mph N/A   Clear
10:35 AM 64.4 °F 46.4 °F 52% 30.25 in 10.0 mi NNE 20.7 mph 26.5 mph N/A   Clear
10:55 AM 64.4 °F 46.4 °F 52% 30.25 in 10.0 mi North 16.1 mph 21.9 mph N/A   Clear
11:15 AM 66.2 °F 46.4 °F 49% 30.25 in 10.0 mi NNE 16.1 mph - N/A   Clear
11:35 AM 66.2 °F 46.4 °F 49% 30.25 in 10.0 mi NNE 17.3 mph 21.9 mph N/A   Clear
11:55 AM 66.2 °F 46.4 °F 49% 30.25 in 10.0 mi NNE 16.1 mph 20.7 mph N/A   Clear
12:15 PM 66.2 °F 46.4 °F 49% 30.23 in 10.0 mi NNE 19.6 mph 24.2 mph N/A   Clear
12:55 PM 69.8 °F 48.2 °F 46% 30.23 in 10.0 mi NNE 17.3 mph 24.2 mph N/A   Clear
1:15 PM 68.0 °F 48.2 °F 49% 30.23 in 10.0 mi NNE 18.4 mph 21.9 mph N/A   Clear
1:35 PM 69.8 °F 48.2 °F 46% 30.23 in 10.0 mi NNE 17.3 mph 25.3 mph N/A   Clear
1:55 PM 69.8 °F 48.2 °F 46% 30.23 in 10.0 mi NNE 18.4 mph 24.2 mph N/A   Clear
2:15 PM 69.8 °F 48.2 °F 46% 30.23 in 10.0 mi NE 15.0 mph 24.2 mph N/A   Clear
2:35 PM 68.0 °F 48.2 °F 49% 30.24 in 10.0 mi North 15.0 mph 20.7 mph N/A   Clear
2:55 PM 66.2 °F 48.2 °F 52% 30.25 in 10.0 mi North 17.3 mph - N/A   Clear
3:15 PM 66.2 °F 48.2 °F 52% 30.24 in 10.0 mi North 15.0 mph - N/A   Clear
3:35 PM 64.4 °F 48.2 °F 56% 30.25 in 10.0 mi North 19.6 mph - N/A   Partly Cloudy
3:55 PM 64.4 °F 48.2 °F 56% 30.26 in 10.0 mi North 19.6 mph 24.2 mph N/A   Partly Cloudy
4:15 PM 62.6 °F 48.2 °F 59% 30.27 in 10.0 mi North 16.1 mph 27.6 mph N/A   Partly Cloudy
4:35 PM 62.6 °F 48.2 °F 59% 30.27 in 10.0 mi North 13.8 mph 23.0 mph N/A   Mostly Cloudy
4:55 PM 62.6 °F 51.8 °F 68% 30.28 in 10.0 mi North 12.7 mph 20.7 mph N/A   Mostly Cloudy
5:15 PM 62.6 °F 50.0 °F 63% 30.28 in 10.0 mi North 13.8 mph - N/A   Clear
5:35 PM 62.6 °F 50.0 °F 63% 30.28 in 10.0 mi North 12.7 mph - N/A   Scattered Clouds
5:55 PM 60.8 °F 48.2 °F 63% 30.27 in 10.0 mi North 10.4 mph - N/A Thunderstorm Scattered Clouds
6:15 PM 60.8 °F 50.0 °F 68% 30.27 in 10.0 mi North 8.1 mph - N/A   Partly Cloudy
6:35 PM 60.8 °F 51.8 °F 72% 30.27 in 10.0 mi NNW 10.4 mph - N/A   Partly Cloudy
6:55 PM 60.8 °F 51.8 °F 72% 30.28 in 10.0 mi North 3.5 mph - N/A   Mostly Cloudy
7:15 PM 60.8 °F 51.8 °F 72% 30.27 in 10.0 mi North 5.8 mph - N/A   Overcast
7:55 PM 57.2 °F 51.8 °F 82% 30.25 in 10.0 mi NNE 5.8 mph - N/A   Mostly Cloudy
8:15 PM 57.2 °F 53.6 °F 88% 30.24 in 10.0 mi Calm Calm - 0.01 in   Overcast
8:35 PM 57.2 °F 53.6 °F 88% 30.24 in 10.0 mi South 6.9 mph - 0.01 in   Overcast
8:55 PM 59.0 °F 53.6 °F 82% 30.24 in 10.0 mi SSE 8.1 mph - 0.01 in   Mostly Cloudy
9:15 PM 60.8 °F 55.4 °F 82% 30.24 in 10.0 mi SSW 9.2 mph - N/A   Mostly Cloudy
9:35 PM 62.6 °F 55.4 °F 77% 30.24 in 10.0 mi SW 10.4 mph - N/A   Overcast
9:55 PM 62.6 °F 55.4 °F 77% 30.24 in 10.0 mi North 6.9 mph - N/A   Overcast
10:15 PM 59.0 °F 55.4 °F 88% 30.25 in 10.0 mi NNE 4.6 mph - N/A   Mostly Cloudy
10:35 PM 59.0 °F 55.4 °F 88% 30.25 in 10.0 mi NE 4.6 mph - N/A   Scattered Clouds
10:55 PM 60.8 °F 55.4 °F 82% 30.26 in 10.0 mi Calm Calm - N/A   Mostly Cloudy
11:15 PM 59.0 °F 55.4 °F 88% 30.26 in 10.0 mi Calm Calm - N/A   Scattered Clouds
11:35 PM 57.2 °F 55.4 °F 94% 30.27 in 10.0 mi NE 8.1 mph - N/A   Mostly Cloudy
11:55 PM 57.2 °F 53.6 °F 88% 30.27 in 10.0 mi NNE 6.9 mph - N/A   Partly Cloudy